sensor_id;sensor_type;location;lat;lon;timestamp;pressure;altitude;pressure_sealevel;temperature;humidity
27210;BME280;14721;42.668;23.386;2022-11-15T00:00:26;95942.13;;;4.84;94.81
27210;BME280;14721;42.668;23.386;2022-11-15T00:02:52;95937.84;;;4.81;94.91
27210;BME280;14721;42.668;23.386;2022-11-15T00:05:19;95921.41;;;4.73;94.65
27210;BME280;14721;42.668;23.386;2022-11-15T00:07:44;95937.03;;;4.79;94.52
27210;BME280;14721;42.668;23.386;2022-11-15T00:10:10;95939.22;;;4.70;94.66
27210;BME280;14721;42.668;23.386;2022-11-15T00:12:36;95941.88;;;4.70;94.97
27210;BME280;14721;42.668;23.386;2022-11-15T00:15:02;95943.44;;;4.74;95.02
27210;BME280;14721;42.668;23.386;2022-11-15T00:17:28;95937.53;;;4.67;95.39
27210;BME280;14721;42.668;23.386;2022-11-15T00:19:54;95930.59;;;4.65;95.46
27210;BME280;14721;42.668;23.386;2022-11-15T00:22:19;95945.59;;;4.64;95.76
27210;BME280;14721;42.668;23.386;2022-11-15T00:24:46;95937.84;;;4.60;95.61
27210;BME280;14721;42.668;23.386;2022-11-15T00:27:12;95935.59;;;4.51;95.96
27210;BME280;14721;42.668;23.386;2022-11-15T00:29:37;95922.56;;;4.46;96.24
27210;BME280;14721;42.668;23.386;2022-11-15T00:32:04;95925.13;;;4.48;96.47
27210;BME280;14721;42.668;23.386;2022-11-15T00:34:30;95931.97;;;4.32;96.82
27210;BME280;14721;42.668;23.386;2022-11-15T00:36:58;95915.88;;;4.38;96.84
27210;BME280;14721;42.668;23.386;2022-11-15T00:39:23;95920.34;;;4.36;96.82
27210;BME280;14721;42.668;23.386;2022-11-15T00:41:49;95918.19;;;4.24;96.66
27210;BME280;14721;42.668;23.386;2022-11-15T00:44:14;95920.06;;;4.22;97.15
27210;BME280;14721;42.668;23.386;2022-11-15T00:46:40;95925.28;;;4.23;97.26
27210;BME280;14721;42.668;23.386;2022-11-15T00:49:06;95919.06;;;4.24;97.27
27210;BME280;14721;42.668;23.386;2022-11-15T00:51:31;95921.16;;;4.16;97.00
27210;BME280;14721;42.668;23.386;2022-11-15T00:53:57;95922.09;;;4.15;97.09
27210;BME280;14721;42.668;23.386;2022-11-15T00:56:23;95927.31;;;4.17;96.66
27210;BME280;14721;42.668;23.386;2022-11-15T00:58:48;95920.50;;;4.11;96.78
27210;BME280;14721;42.668;23.386;2022-11-15T01:01:14;95916.16;;;4.09;96.81
27210;BME280;14721;42.668;23.386;2022-11-15T01:03:41;95914.28;;;4.12;96.71
27210;BME280;14721;42.668;23.386;2022-11-15T01:06:07;95905.72;;;4.06;96.77
27210;BME280;14721;42.668;23.386;2022-11-15T01:08:33;95910.75;;;3.90;96.74
27210;BME280;14721;42.668;23.386;2022-11-15T01:11:04;95909.38;;;3.80;96.99
27210;BME280;14721;42.668;23.386;2022-11-15T01:13:32;95909.13;;;3.64;97.63
27210;BME280;14721;42.668;23.386;2022-11-15T01:15:59;95910.84;;;3.65;97.74
27210;BME280;14721;42.668;23.386;2022-11-15T01:18:30;95910.97;;;3.62;97.71
27210;BME280;14721;42.668;23.386;2022-11-15T01:20:56;95918.19;;;3.57;98.25
27210;BME280;14721;42.668;23.386;2022-11-15T01:23:22;95910.25;;;3.57;98.17
27210;BME280;14721;42.668;23.386;2022-11-15T01:25:48;95912.84;;;3.59;98.21
27210;BME280;14721;42.668;23.386;2022-11-15T01:28:14;95914.66;;;3.58;98.15
27210;BME280;14721;42.668;23.386;2022-11-15T01:30:40;95909.81;;;3.46;98.40
27210;BME280;14721;42.668;23.386;2022-11-15T01:33:05;95910.78;;;3.44;98.71
27210;BME280;14721;42.668;23.386;2022-11-15T01:35:31;95896.78;;;3.42;98.71
27210;BME280;14721;42.668;23.386;2022-11-15T01:37:57;95916.53;;;3.55;98.53
27210;BME280;14721;42.668;23.386;2022-11-15T01:40:23;95920.16;;;3.52;98.17
27210;BME280;14721;42.668;23.386;2022-11-15T01:42:48;95916.69;;;3.50;98.50
27210;BME280;14721;42.668;23.386;2022-11-15T01:45:15;95911.94;;;3.37;98.70
27210;BME280;14721;42.668;23.386;2022-11-15T01:47:48;95921.75;;;3.33;98.97
27210;BME280;14721;42.668;23.386;2022-11-15T01:50:18;95915.56;;;3.34;98.75
27210;BME280;14721;42.668;23.386;2022-11-15T01:52:46;95909.59;;;3.29;98.71
27210;BME280;14721;42.668;23.386;2022-11-15T01:55:21;95912.50;;;3.22;99.07
27210;BME280;14721;42.668;23.386;2022-11-15T01:57:51;95911.75;;;3.18;98.84
27210;BME280;14721;42.668;23.386;2022-11-15T02:00:18;95907.28;;;3.20;99.41
27210;BME280;14721;42.668;23.386;2022-11-15T02:02:44;95900.44;;;3.15;99.34
27210;BME280;14721;42.668;23.386;2022-11-15T02:05:10;95893.09;;;3.00;99.47
27210;BME280;14721;42.668;23.386;2022-11-15T02:07:36;95900.91;;;3.03;99.76
27210;BME280;14721;42.668;23.386;2022-11-15T02:10:12;95904.44;;;3.02;99.84
27210;BME280;14721;42.668;23.386;2022-11-15T02:12:38;95906.91;;;3.06;100.00
27210;BME280;14721;42.668;23.386;2022-11-15T02:15:05;95892.38;;;2.95;100.00
27210;BME280;14721;42.668;23.386;2022-11-15T02:18:18;95884.56;;;2.92;99.69
27210;BME280;14721;42.668;23.386;2022-11-15T02:20:44;95911.00;;;2.90;99.83
27210;BME280;14721;42.668;23.386;2022-11-15T02:41:53;95900.75;;;2.32;100.00
27210;BME280;14721;42.668;23.386;2022-11-15T02:47:01;95887.16;;;2.18;100.00
27210;BME280;14721;42.668;23.386;2022-11-15T02:49:40;95899.28;;;2.24;100.00
27210;BME280;14721;42.668;23.386;2022-11-15T02:52:07;95908.13;;;2.21;100.00
27210;BME280;14721;42.668;23.386;2022-11-15T02:54:35;95907.19;;;2.24;100.00
27210;BME280;14721;42.668;23.386;2022-11-15T02:57:07;95904.72;;;2.19;100.00
27210;BME280;14721;42.668;23.386;2022-11-15T03:05:07;95910.03;;;2.18;100.00
27210;BME280;14721;42.668;23.386;2022-11-15T03:07:53;95898.28;;;2.28;100.00
27210;BME280;14721;42.668;23.386;2022-11-15T03:10:46;95900.13;;;2.24;100.00
27210;BME280;14721;42.668;23.386;2022-11-15T03:13:46;95900.28;;;2.20;100.00
27210;BME280;14721;42.668;23.386;2022-11-15T03:16:43;95901.22;;;2.19;100.00
27210;BME280;14721;42.668;23.386;2022-11-15T03:19:14;95899.59;;;2.15;100.00
27210;BME280;14721;42.668;23.386;2022-11-15T03:21:43;95906.72;;;2.11;100.00
27210;BME280;14721;42.668;23.386;2022-11-15T03:24:12;95892.38;;;2.20;100.00
27210;BME280;14721;42.668;23.386;2022-11-15T03:26:43;95894.38;;;2.13;100.00
27210;BME280;14721;42.668;23.386;2022-11-15T03:29:14;95883.25;;;2.04;100.00
27210;BME280;14721;42.668;23.386;2022-11-15T03:31:47;95892.09;;;2.03;100.00
27210;BME280;14721;42.668;23.386;2022-11-15T03:36:52;95892.19;;;2.00;100.00
27210;BME280;14721;42.668;23.386;2022-11-15T03:39:19;95889.50;;;2.01;100.00
27210;BME280;14721;42.668;23.386;2022-11-15T03:42:31;95879.81;;;2.02;100.00
27210;BME280;14721;42.668;23.386;2022-11-15T03:47:39;95880.66;;;2.02;100.00
27210;BME280;14721;42.668;23.386;2022-11-15T03:50:14;95880.63;;;2.04;100.00
27210;BME280;14721;42.668;23.386;2022-11-15T03:52:43;95878.13;;;1.99;100.00
27210;BME280;14721;42.668;23.386;2022-11-15T03:55:12;95872.72;;;2.04;100.00
27210;BME280;14721;42.668;23.386;2022-11-15T03:57:38;95879.66;;;2.06;100.00
27210;BME280;14721;42.668;23.386;2022-11-15T04:00:05;95871.00;;;2.03;100.00
27210;BME280;14721;42.668;23.386;2022-11-15T04:02:31;95870.03;;;2.05;100.00
27210;BME280;14721;42.668;23.386;2022-11-15T04:04:56;95874.53;;;2.02;100.00
27210;BME280;14721;42.668;23.386;2022-11-15T04:07:22;95874.69;;;1.97;100.00
27210;BME280;14721;42.668;23.386;2022-11-15T04:09:48;95874.69;;;1.97;100.00
27210;BME280;14721;42.668;23.386;2022-11-15T04:12:38;95850.63;;;1.81;100.00
27210;BME280;14721;42.668;23.386;2022-11-15T04:15:11;95873.63;;;2.03;100.00
27210;BME280;14721;42.668;23.386;2022-11-15T04:20:09;95858.72;;;2.02;100.00
27210;BME280;14721;42.668;23.386;2022-11-15T04:22:55;95866.72;;;1.98;100.00
27210;BME280;14721;42.668;23.386;2022-11-15T04:25:41;95853.97;;;2.13;100.00
27210;BME280;14721;42.668;23.386;2022-11-15T04:28:08;95853.72;;;2.20;100.00
27210;BME280;14721;42.668;23.386;2022-11-15T04:30:34;95844.50;;;2.32;100.00
27210;BME280;14721;42.668;23.386;2022-11-15T04:33:00;95844.91;;;2.46;100.00
27210;BME280;14721;42.668;23.386;2022-11-15T04:35:27;95858.84;;;2.49;100.00
27210;BME280;14721;42.668;23.386;2022-11-15T04:37:53;95854.41;;;2.50;100.00
27210;BME280;14721;42.668;23.386;2022-11-15T04:40:19;95862.00;;;2.59;100.00
27210;BME280;14721;42.668;23.386;2022-11-15T04:42:46;95866.16;;;2.66;100.00
27210;BME280;14721;42.668;23.386;2022-11-15T04:45:12;95855.44;;;2.70;100.00
27210;BME280;14721;42.668;23.386;2022-11-15T04:47:37;95860.28;;;2.82;100.00
27210;BME280;14721;42.668;23.386;2022-11-15T04:50:05;95847.69;;;2.90;100.00
27210;BME280;14721;42.668;23.386;2022-11-15T04:52:31;95857.25;;;2.93;100.00
27210;BME280;14721;42.668;23.386;2022-11-15T04:54:57;95858.53;;;3.06;100.00
27210;BME280;14721;42.668;23.386;2022-11-15T04:57:23;95852.69;;;2.98;100.00
27210;BME280;14721;42.668;23.386;2022-11-15T04:59:48;95855.97;;;3.04;100.00
27210;BME280;14721;42.668;23.386;2022-11-15T05:02:14;95859.91;;;3.16;100.00
27210;BME280;14721;42.668;23.386;2022-11-15T05:04:40;95855.16;;;3.25;100.00
27210;BME280;14721;42.668;23.386;2022-11-15T05:07:06;95855.00;;;3.30;100.00
27210;BME280;14721;42.668;23.386;2022-11-15T05:09:31;95861.88;;;3.34;100.00
27210;BME280;14721;42.668;23.386;2022-11-15T05:11:57;95858.00;;;3.42;100.00
27210;BME280;14721;42.668;23.386;2022-11-15T05:14:23;95855.06;;;3.50;100.00
27210;BME280;14721;42.668;23.386;2022-11-15T05:16:51;95864.16;;;3.43;100.00
27210;BME280;14721;42.668;23.386;2022-11-15T05:19:17;95859.63;;;3.46;100.00
27210;BME280;14721;42.668;23.386;2022-11-15T05:21:42;95845.25;;;3.53;100.00
27210;BME280;14721;42.668;23.386;2022-11-15T05:24:10;95845.78;;;3.63;100.00
27210;BME280;14721;42.668;23.386;2022-11-15T05:26:36;95856.03;;;3.70;100.00
27210;BME280;14721;42.668;23.386;2022-11-15T05:29:02;95857.75;;;3.71;100.00
27210;BME280;14721;42.668;23.386;2022-11-15T05:31:28;95862.47;;;3.63;100.00
27210;BME280;14721;42.668;23.386;2022-11-15T05:33:55;95858.69;;;3.70;100.00
27210;BME280;14721;42.668;23.386;2022-11-15T05:36:38;95846.94;;;3.77;100.00
27210;BME280;14721;42.668;23.386;2022-11-15T05:39:06;95852.78;;;3.85;100.00
27210;BME280;14721;42.668;23.386;2022-11-15T05:41:38;95848.97;;;3.92;100.00
27210;BME280;14721;42.668;23.386;2022-11-15T05:44:09;95852.31;;;3.98;100.00
27210;BME280;14721;42.668;23.386;2022-11-15T05:46:36;95854.50;;;4.08;100.00
27210;BME280;14721;42.668;23.386;2022-11-15T05:49:06;95852.63;;;4.10;100.00
27210;BME280;14721;42.668;23.386;2022-11-15T05:51:35;95856.84;;;4.16;100.00
27210;BME280;14721;42.668;23.386;2022-11-15T05:54:01;95846.97;;;4.19;100.00
27210;BME280;14721;42.668;23.386;2022-11-15T05:56:28;95858.34;;;4.21;100.00
27210;BME280;14721;42.668;23.386;2022-11-15T05:58:55;95852.06;;;4.24;100.00
27210;BME280;14721;42.668;23.386;2022-11-15T06:01:24;95858.09;;;4.27;100.00
27210;BME280;14721;42.668;23.386;2022-11-15T06:03:50;95853.31;;;4.37;100.00
27210;BME280;14721;42.668;23.386;2022-11-15T06:06:16;95849.28;;;4.48;100.00
27210;BME280;14721;42.668;23.386;2022-11-15T06:08:41;95857.69;;;4.58;100.00
27210;BME280;14721;42.668;23.386;2022-11-15T06:11:07;95856.56;;;4.63;100.00
27210;BME280;14721;42.668;23.386;2022-11-15T06:13:33;95858.53;;;4.78;100.00
27210;BME280;14721;42.668;23.386;2022-11-15T06:15:59;95860.59;;;4.92;100.00
27210;BME280;14721;42.668;23.386;2022-11-15T06:18:26;95864.81;;;4.96;100.00
27210;BME280;14721;42.668;23.386;2022-11-15T06:20:51;95851.16;;;5.05;100.00
27210;BME280;14721;42.668;23.386;2022-11-15T06:23:17;95851.34;;;5.20;100.00
27210;BME280;14721;42.668;23.386;2022-11-15T06:25:42;95865.28;;;5.24;100.00
27210;BME280;14721;42.668;23.386;2022-11-15T06:28:08;95846.66;;;5.07;100.00
27210;BME280;14721;42.668;23.386;2022-11-15T06:30:33;95836.75;;;5.12;100.00
27210;BME280;14721;42.668;23.386;2022-11-15T06:33:00;95846.47;;;5.30;100.00
27210;BME280;14721;42.668;23.386;2022-11-15T06:35:27;95865.03;;;5.30;100.00
27210;BME280;14721;42.668;23.386;2022-11-15T06:37:52;95856.66;;;5.20;100.00
27210;BME280;14721;42.668;23.386;2022-11-15T06:40:18;95833.63;;;5.02;100.00
27210;BME280;14721;42.668;23.386;2022-11-15T06:42:43;95850.78;;;5.32;100.00
27210;BME280;14721;42.668;23.386;2022-11-15T06:45:09;95851.50;;;5.36;100.00
27210;BME280;14721;42.668;23.386;2022-11-15T06:47:34;95851.00;;;5.46;100.00
27210;BME280;14721;42.668;23.386;2022-11-15T06:50:00;95858.81;;;5.49;100.00
27210;BME280;14721;42.668;23.386;2022-11-15T06:52:25;95852.69;;;5.49;100.00
27210;BME280;14721;42.668;23.386;2022-11-15T06:54:51;95850.94;;;5.66;100.00
27210;BME280;14721;42.668;23.386;2022-11-15T06:57:16;95857.13;;;5.86;100.00
27210;BME280;14721;42.668;23.386;2022-11-15T06:59:41;95849.03;;;5.70;99.55
27210;BME280;14721;42.668;23.386;2022-11-15T07:02:12;95830.75;;;5.64;98.08
27210;BME280;14721;42.668;23.386;2022-11-15T07:04:38;95831.53;;;5.66;97.03
27210;BME280;14721;42.668;23.386;2022-11-15T07:07:03;95853.72;;;5.84;96.84
27210;BME280;14721;42.668;23.386;2022-11-15T07:09:29;95850.75;;;5.90;96.96
27210;BME280;14721;42.668;23.386;2022-11-15T07:11:54;95839.00;;;5.95;96.41
27210;BME280;14721;42.668;23.386;2022-11-15T07:14:19;95842.38;;;5.99;96.40
27210;BME280;14721;42.668;23.386;2022-11-15T07:16:46;95842.28;;;6.00;95.38
27210;BME280;14721;42.668;23.386;2022-11-15T07:19:11;95842.44;;;5.97;94.62
27210;BME280;14721;42.668;23.386;2022-11-15T07:21:37;95835.91;;;5.86;94.92
27210;BME280;14721;42.668;23.386;2022-11-15T07:24:02;95836.78;;;5.86;94.80
27210;BME280;14721;42.668;23.386;2022-11-15T07:26:29;95822.97;;;5.78;95.60
27210;BME280;14721;42.668;23.386;2022-11-15T07:28:54;95813.06;;;5.83;94.97
27210;BME280;14721;42.668;23.386;2022-11-15T07:31:19;95839.13;;;6.11;94.65
27210;BME280;14721;42.668;23.386;2022-11-15T07:33:45;95848.34;;;6.21;94.17
27210;BME280;14721;42.668;23.386;2022-11-15T07:36:10;95837.28;;;6.30;93.75
27210;BME280;14721;42.668;23.386;2022-11-15T07:38:36;95845.56;;;6.41;93.58
27210;BME280;14721;42.668;23.386;2022-11-15T07:41:04;95805.19;;;6.34;92.84
27210;BME280;14721;42.668;23.386;2022-11-15T07:43:30;95837.28;;;6.64;92.29
27210;BME280;14721;42.668;23.386;2022-11-15T07:45:58;95835.13;;;6.72;91.35
27210;BME280;14721;42.668;23.386;2022-11-15T07:48:23;95839.09;;;6.80;91.21
27210;BME280;14721;42.668;23.386;2022-11-15T07:50:49;95836.44;;;6.80;90.55
27210;BME280;14721;42.668;23.386;2022-11-15T07:53:14;95838.75;;;6.86;90.08
27210;BME280;14721;42.668;23.386;2022-11-15T07:55:40;95823.47;;;6.74;90.07
27210;BME280;14721;42.668;23.386;2022-11-15T07:58:09;95837.28;;;6.98;89.19
27210;BME280;14721;42.668;23.386;2022-11-15T08:00:35;95840.09;;;6.95;89.70
27210;BME280;14721;42.668;23.386;2022-11-15T08:03:19;95840.63;;;7.01;88.94
27210;BME280;14721;42.668;23.386;2022-11-15T08:05:50;95839.63;;;7.04;88.94
27210;BME280;14721;42.668;23.386;2022-11-15T08:08:16;95823.06;;;6.82;89.09
27210;BME280;14721;42.668;23.386;2022-11-15T08:10:42;95836.41;;;6.97;89.33
27210;BME280;14721;42.668;23.386;2022-11-15T08:13:26;95838.84;;;7.02;89.50
27210;BME280;14721;42.668;23.386;2022-11-15T08:15:51;95819.84;;;6.92;89.48
27210;BME280;14721;42.668;23.386;2022-11-15T08:18:17;95833.84;;;6.96;89.64
27210;BME280;14721;42.668;23.386;2022-11-15T08:20:43;95832.75;;;7.00;90.31
27210;BME280;14721;42.668;23.386;2022-11-15T08:23:11;95835.03;;;6.90;89.82
27210;BME280;14721;42.668;23.386;2022-11-15T08:25:37;95831.59;;;6.71;90.02
27210;BME280;14721;42.668;23.386;2022-11-15T08:28:05;95829.88;;;6.70;91.05
27210;BME280;14721;42.668;23.386;2022-11-15T08:30:35;95823.16;;;6.80;90.30
27210;BME280;14721;42.668;23.386;2022-11-15T08:33:02;95814.41;;;6.78;90.32
27210;BME280;14721;42.668;23.386;2022-11-15T08:35:27;95835.44;;;6.83;90.33
27210;BME280;14721;42.668;23.386;2022-11-15T08:37:53;95835.59;;;6.80;90.20
27210;BME280;14721;42.668;23.386;2022-11-15T08:40:19;95822.38;;;6.61;90.86
27210;BME280;14721;42.668;23.386;2022-11-15T08:42:48;95820.41;;;6.82;91.14
27210;BME280;14721;42.668;23.386;2022-11-15T08:45:13;95807.75;;;6.87;90.54
27210;BME280;14721;42.668;23.386;2022-11-15T08:47:39;95807.19;;;6.97;90.27
27210;BME280;14721;42.668;23.386;2022-11-15T08:50:05;95808.50;;;7.06;90.53
27210;BME280;14721;42.668;23.386;2022-11-15T08:52:30;95809.03;;;7.12;90.28
27210;BME280;14721;42.668;23.386;2022-11-15T08:54:56;95791.25;;;6.97;90.32
27210;BME280;14721;42.668;23.386;2022-11-15T08:57:22;95793.44;;;7.06;90.70
27210;BME280;14721;42.668;23.386;2022-11-15T08:59:47;95779.00;;;6.95;90.62
27210;BME280;14721;42.668;23.386;2022-11-15T09:02:13;95791.56;;;7.08;90.76
27210;BME280;14721;42.668;23.386;2022-11-15T09:04:43;95793.69;;;7.02;91.33
27210;BME280;14721;42.668;23.386;2022-11-15T09:07:10;95788.34;;;7.19;90.96
27210;BME280;14721;42.668;23.386;2022-11-15T09:09:36;95781.34;;;7.16;90.61
27210;BME280;14721;42.668;23.386;2022-11-15T09:12:03;95774.72;;;7.25;90.45
27210;BME280;14721;42.668;23.386;2022-11-15T09:14:29;95781.78;;;7.09;90.64
27210;BME280;14721;42.668;23.386;2022-11-15T09:16:54;95772.31;;;7.20;90.33
27210;BME280;14721;42.668;23.386;2022-11-15T09:19:20;95768.69;;;7.21;90.04
27210;BME280;14721;42.668;23.386;2022-11-15T09:21:46;95764.66;;;7.14;90.64
27210;BME280;14721;42.668;23.386;2022-11-15T09:24:12;95768.44;;;7.26;90.21
27210;BME280;14721;42.668;23.386;2022-11-15T09:26:37;95765.09;;;7.22;90.29
27210;BME280;14721;42.668;23.386;2022-11-15T09:29:03;95754.44;;;7.07;90.48
27210;BME280;14721;42.668;23.386;2022-11-15T09:31:28;95764.91;;;7.10;91.22
27210;BME280;14721;42.668;23.386;2022-11-15T09:33:54;95755.91;;;7.12;91.27
27210;BME280;14721;42.668;23.386;2022-11-15T09:36:20;95744.19;;;7.32;91.27
27210;BME280;14721;42.668;23.386;2022-11-15T09:38:46;95727.72;;;7.41;90.10
27210;BME280;14721;42.668;23.386;2022-11-15T09:49:29;95728.75;;;7.69;88.40
27210;BME280;14721;42.668;23.386;2022-11-15T09:51:55;95742.97;;;7.84;88.29
27210;BME280;14721;42.668;23.386;2022-11-15T09:54:39;95727.19;;;7.81;88.63
27210;BME280;14721;42.668;23.386;2022-11-15T09:57:13;95702.38;;;7.81;88.30
27210;BME280;14721;42.668;23.386;2022-11-15T10:00:00;95721.50;;;8.03;87.21
27210;BME280;14721;42.668;23.386;2022-11-15T10:05:32;95708.13;;;8.18;86.15
27210;BME280;14721;42.668;23.386;2022-11-15T10:10:46;95690.28;;;8.36;85.35
27210;BME280;14721;42.668;23.386;2022-11-15T10:13:22;95698.09;;;8.53;84.60
27210;BME280;14721;42.668;23.386;2022-11-15T10:15:48;95686.59;;;8.52;84.24
27210;BME280;14721;42.668;23.386;2022-11-15T10:20:48;95693.75;;;8.80;83.43
27210;BME280;14721;42.668;23.386;2022-11-15T10:23:17;95688.50;;;8.78;82.73
27210;BME280;14721;42.668;23.386;2022-11-15T10:25:43;95667.66;;;8.71;82.24
27210;BME280;14721;42.668;23.386;2022-11-15T10:28:27;95689.84;;;8.71;82.93
27210;BME280;14721;42.668;23.386;2022-11-15T10:30:58;95675.38;;;8.61;83.21
27210;BME280;14721;42.668;23.386;2022-11-15T10:41:13;95655.19;;;8.43;83.83
27210;BME280;14721;42.668;23.386;2022-11-15T10:43:42;95664.56;;;8.35;84.85
27210;BME280;14721;42.668;23.386;2022-11-15T10:46:22;95642.72;;;8.30;85.52
27210;BME280;14721;42.668;23.386;2022-11-15T10:48:48;95651.25;;;8.35;85.74
27210;BME280;14721;42.668;23.386;2022-11-15T10:51:27;95650.13;;;8.25;86.07
27210;BME280;14721;42.668;23.386;2022-11-15T10:53:56;95631.78;;;8.05;86.64
27210;BME280;14721;42.668;23.386;2022-11-15T10:56:24;95619.84;;;8.12;86.98
27210;BME280;14721;42.668;23.386;2022-11-15T10:58:55;95620.09;;;8.37;86.45
27210;BME280;14721;42.668;23.386;2022-11-15T11:01:26;95618.56;;;8.47;85.36
27210;BME280;14721;42.668;23.386;2022-11-15T11:06:27;95606.78;;;8.37;86.10
27210;BME280;14721;42.668;23.386;2022-11-15T11:11:19;95610.22;;;8.53;85.90
27210;BME280;14721;42.668;23.386;2022-11-15T11:13:45;95605.56;;;8.56;85.64
27210;BME280;14721;42.668;23.386;2022-11-15T11:24:31;95594.22;;;8.53;85.51
27210;BME280;14721;42.668;23.386;2022-11-15T11:37:50;95567.81;;;7.92;89.24
27210;BME280;14721;42.668;23.386;2022-11-15T11:40:36;95551.03;;;7.62;90.90
27210;BME280;14721;42.668;23.386;2022-11-15T11:48:40;95545.47;;;7.06;95.24
27210;BME280;14721;42.668;23.386;2022-11-15T11:51:24;95541.56;;;6.97;96.53
27210;BME280;14721;42.668;23.386;2022-11-15T11:56:48;95529.84;;;6.86;98.96
27210;BME280;14721;42.668;23.386;2022-11-15T11:59:39;95538.53;;;7.03;98.50
27210;BME280;14721;42.668;23.386;2022-11-15T12:02:28;95524.91;;;7.09;98.47
27210;BME280;14721;42.668;23.386;2022-11-15T12:05:44;95523.72;;;6.99;98.49
27210;BME280;14721;42.668;23.386;2022-11-15T12:07:45;95524.81;;;7.11;98.60
27210;BME280;14721;42.668;23.386;2022-11-15T12:10:28;95511.59;;;7.25;98.85
27210;BME280;14721;42.668;23.386;2022-11-15T12:13:16;95502.81;;;7.38;98.53
27210;BME280;14721;42.668;23.386;2022-11-15T12:18:28;95499.63;;;7.61;96.61
27210;BME280;14721;42.668;23.386;2022-11-15T12:21:05;95489.22;;;7.72;95.56
27210;BME280;14721;42.668;23.386;2022-11-15T12:23:39;95496.44;;;7.85;94.92
27210;BME280;14721;42.668;23.386;2022-11-15T12:26:24;95495.78;;;7.95;94.74
27210;BME280;14721;42.668;23.386;2022-11-15T12:28:57;95492.56;;;8.04;93.78
27210;BME280;14721;42.668;23.386;2022-11-15T12:31:39;95480.69;;;8.10;93.21
27210;BME280;14721;42.668;23.386;2022-11-15T12:34:38;95474.50;;;8.09;92.75
27210;BME280;14721;42.668;23.386;2022-11-15T12:43:00;95467.56;;;8.21;92.42
27210;BME280;14721;42.668;23.386;2022-11-15T12:45:33;95460.53;;;8.34;91.25
27210;BME280;14721;42.668;23.386;2022-11-15T12:53:27;95450.41;;;8.53;90.70
27210;BME280;14721;42.668;23.386;2022-11-15T12:56:18;95453.28;;;8.50;90.62
27210;BME280;14721;42.668;23.386;2022-11-15T13:06:55;95448.19;;;8.73;89.72
27210;BME280;14721;42.668;23.386;2022-11-15T13:11:53;95438.84;;;8.80;89.69
27210;BME280;14721;42.668;23.386;2022-11-15T13:19:46;95427.59;;;8.89;88.79
27210;BME280;14721;42.668;23.386;2022-11-15T13:22:11;95422.41;;;9.00;88.90
27210;BME280;14721;42.668;23.386;2022-11-15T13:24:56;95416.56;;;9.08;88.73
27210;BME280;14721;42.668;23.386;2022-11-15T13:27:21;95404.59;;;9.01;88.84
27210;BME280;14721;42.668;23.386;2022-11-15T13:29:47;95415.50;;;9.10;88.57
27210;BME280;14721;42.668;23.386;2022-11-15T13:32:13;95406.53;;;9.11;88.73
27210;BME280;14721;42.668;23.386;2022-11-15T13:34:45;95404.94;;;9.09;88.60
27210;BME280;14721;42.668;23.386;2022-11-15T13:37:32;95411.03;;;9.11;88.70
27210;BME280;14721;42.668;23.386;2022-11-15T13:40:27;95405.81;;;9.09;88.74
27210;BME280;14721;42.668;23.386;2022-11-15T13:42:56;95413.13;;;9.06;88.48
27210;BME280;14721;42.668;23.386;2022-11-15T13:45:21;95411.00;;;8.98;88.68
27210;BME280;14721;42.668;23.386;2022-11-15T13:47:57;95410.31;;;8.95;88.94
27210;BME280;14721;42.668;23.386;2022-11-15T13:50:33;95411.41;;;8.92;88.98
27210;BME280;14721;42.668;23.386;2022-11-15T13:53:02;95395.00;;;8.98;88.74
27210;BME280;14721;42.668;23.386;2022-11-15T13:55:30;95401.50;;;9.07;88.79
27210;BME280;14721;42.668;23.386;2022-11-15T13:58:00;95400.53;;;8.95;88.86
27210;BME280;14721;42.668;23.386;2022-11-15T14:00:39;95403.44;;;9.05;88.72
27210;BME280;14721;42.668;23.386;2022-11-15T14:03:19;95384.44;;;8.97;87.98
27210;BME280;14721;42.668;23.386;2022-11-15T14:06:10;95400.69;;;9.06;88.44
27210;BME280;14721;42.668;23.386;2022-11-15T14:09:03;95393.00;;;9.02;88.39
27210;BME280;14721;42.668;23.386;2022-11-15T14:11:27;95399.06;;;9.04;88.46
27210;BME280;14721;42.668;23.386;2022-11-15T14:16:40;95378.22;;;8.84;88.40
27210;BME280;14721;42.668;23.386;2022-11-15T14:19:10;95372.69;;;8.87;88.60
27210;BME280;14721;42.668;23.386;2022-11-15T14:21:36;95371.72;;;8.88;88.32
27210;BME280;14721;42.668;23.386;2022-11-15T14:24:20;95380.91;;;8.96;88.31
27210;BME280;14721;42.668;23.386;2022-11-15T14:26:45;95387.50;;;8.91;88.48
27210;BME280;14721;42.668;23.386;2022-11-15T14:32:14;95374.59;;;8.85;88.59
27210;BME280;14721;42.668;23.386;2022-11-15T14:34:41;95393.81;;;8.90;88.56
27210;BME280;14721;42.668;23.386;2022-11-15T14:37:20;95387.56;;;8.77;88.62
27210;BME280;14721;42.668;23.386;2022-11-15T14:39:46;95388.16;;;8.68;89.05
27210;BME280;14721;42.668;23.386;2022-11-15T14:42:11;95373.97;;;8.55;89.30
27210;BME280;14721;42.668;23.386;2022-11-15T14:44:37;95339.66;;;8.24;89.91
27210;BME280;14721;42.668;23.386;2022-11-15T14:47:02;95390.03;;;8.53;90.15
27210;BME280;14721;42.668;23.386;2022-11-15T14:49:28;95380.13;;;8.29;90.83
27210;BME280;14721;42.668;23.386;2022-11-15T14:51:53;95393.63;;;8.12;92.29
27210;BME280;14721;42.668;23.386;2022-11-15T14:54:18;95395.34;;;7.99;93.17
27210;BME280;14721;42.668;23.386;2022-11-15T14:56:44;95396.19;;;7.85;94.15
27210;BME280;14721;42.668;23.386;2022-11-15T14:59:09;95392.97;;;7.66;95.72
27210;BME280;14721;42.668;23.386;2022-11-15T15:01:35;95393.47;;;7.58;96.75
27210;BME280;14721;42.668;23.386;2022-11-15T15:04:00;95389.00;;;7.59;97.10
27210;BME280;14721;42.668;23.386;2022-11-15T15:06:26;95375.03;;;7.41;97.53
27210;BME280;14721;42.668;23.386;2022-11-15T15:08:51;95394.22;;;7.46;98.25
27210;BME280;14721;42.668;23.386;2022-11-15T15:11:26;95395.72;;;7.36;98.57
27210;BME280;14721;42.668;23.386;2022-11-15T15:13:53;95363.44;;;7.14;98.97
27210;BME280;14721;42.668;23.386;2022-11-15T15:16:22;95380.97;;;7.17;99.64